Time;durP1;ratioP1;P1;durP2;ratioP2;P2;SDS_P1;SDS_P2;PMS_P1;PMS_P2;Temp;Humidity;BMP_temperature;BMP_pressure;BME280_temperature;BME280_humidity;BME280_pressure;Samples;Min_cycle;Max_cycle;Signal;HPM_P1;HPM_P2
2022/08/01 00:08:59;;;;;;;5.20;2.03;;;19.60;99.90;;;;;;20844288;28;20033;-80
2022/08/01 00:19:00;;;;;;;3.57;2.37;;;19.50;99.90;;;;;;20825694;28;20033;-79
2022/08/01 00:29:01;;;;;;;5.03;2.20;;;19.50;99.90;;;;;;20842391;28;20032;-78
2022/08/01 00:39:02;;;;;;;3.33;2.00;;;19.40;99.90;;;;;;20843152;28;20022;-78
2022/08/01 00:49:03;;;;;;;4.00;2.00;;;19.30;99.90;;;;;;20903166;23;20044;-79
2022/08/01 00:59:05;;;;;;;7.53;2.50;;;19.30;99.90;;;;;;20906447;28;20050;-79
2022/08/01 01:09:16;;;;;;;4.43;1.70;;;19.10;99.90;;;;;;20905429;28;20036;-80
2022/08/01 01:19:23;;;;;;;4.00;1.70;;;18.80;99.90;;;;;;20906090;28;20087;-79
2022/08/01 01:29:41;;;;;;;7.18;3.38;;;18.60;99.90;;;;;;20907336;28;20036;-80
2022/08/01 01:39:43;;;;;;;2.42;1.60;;;18.00;99.90;;;;;;20904089;28;20397;-80
2022/08/01 01:49:46;;;;;;;4.72;2.63;;;18.30;99.90;;;;;;20905252;28;20025;-79
2022/08/01 01:59:50;;;;;;;4.80;1.77;;;18.20;99.90;;;;;;20905454;28;20055;-81
2022/08/01 02:09:53;;;;;;;5.13;2.75;;;18.40;99.90;;;;;;20904090;28;20079;-79
2022/08/01 02:19:55;;;;;;;4.70;2.53;;;18.00;99.90;;;;;;20907059;28;20083;-80
2022/08/01 02:30:01;;;;;;;4.05;2.00;;;18.10;99.90;;;;;;20919934;28;20715;-80
2022/08/01 02:40:03;;;;;;;7.20;4.63;;;17.70;99.90;;;;;;20919029;28;20127;-79
2022/08/01 02:50:05;;;;;;;4.82;2.90;;;17.30;99.90;;;;;;20919428;28;20107;-79
2022/08/01 03:00:06;;;;;;;5.13;3.10;;;17.10;99.90;;;;;;20920181;28;20029;-80
2022/08/01 03:10:09;;;;;;;8.10;2.53;;;17.20;99.90;;;;;;20916714;28;20028;-80
2022/08/01 03:20:13;;;;;;;3.58;2.08;;;17.20;99.90;;;;;;20915153;28;20598;-81
2022/08/01 03:30:15;;;;;;;6.43;2.60;;;16.70;99.90;;;;;;20913132;28;20033;-79
2022/08/01 03:40:28;;;;;;;6.63;2.17;;;16.70;99.90;;;;;;20913907;28;20051;-80
2022/08/01 03:50:30;;;;;;;4.75;1.95;;;16.40;99.90;;;;;;20912730;28;20036;-80
2022/08/01 04:00:32;;;;;;;3.30;2.00;;;16.30;99.90;;;;;;20912021;28;20060;-81
2022/08/01 04:10:33;;;;;;;3.00;2.03;;;16.40;99.90;;;;;;20912385;28;20044;-79
2022/08/01 04:20:34;;;;;;;3.33;1.87;;;16.50;99.90;;;;;;20843923;28;20033;-79
2022/08/01 04:30:37;;;;;;;2.63;1.70;;;16.80;99.90;;;;;;20830893;28;20033;-80
2022/08/01 04:40:45;;;;;;;3.65;2.53;;;16.90;99.90;;;;;;20825808;28;20045;-80
2022/08/01 04:50:46;;;;;;;3.22;2.00;;;16.80;99.90;;;;;;20827502;28;20029;-81
2022/08/01 05:00:47;;;;;;;3.00;1.97;;;16.90;99.90;;;;;;20826817;28;20104;-79
2022/08/01 05:10:48;;;;;;;8.70;2.83;;;17.10;99.90;;;;;;20825269;28;20042;-80
2022/08/01 05:20:49;;;;;;;5.00;3.17;;;17.50;99.90;;;;;;20810273;28;20137;-81
2022/08/01 05:30:50;;;;;;;3.23;1.93;;;18.00;99.90;;;;;;20826111;28;20037;-80
2022/08/01 05:40:50;;;;;;;3.27;2.63;;;18.50;99.90;;;;;;20826566;28;20025;-81
2022/08/01 05:50:51;;;;;;;5.57;2.50;;;18.90;99.90;;;;;;20823896;28;20498;-80
2022/08/01 06:00:52;;;;;;;6.20;2.30;;;19.50;99.90;;;;;;20837909;28;20029;-80
2022/08/01 06:10:53;;;;;;;3.27;2.40;;;19.80;99.90;;;;;;20838555;28;20068;-80
2022/08/01 06:20:54;;;;;;;4.55;2.25;;;20.20;99.90;;;;;;20838661;28;20075;-80
2022/08/01 06:30:55;;;;;;;3.13;2.13;;;20.90;99.90;;;;;;20837860;28;20030;-81
2022/08/01 06:40:56;;;;;;;2.17;1.80;;;21.50;99.90;;;;;;20883575;22;20048;-78
2022/08/01 06:51:11;;;;;;;4.03;1.97;;;21.90;99.90;;;;;;20815070;28;20030;-77
2022/08/01 07:01:12;;;;;;;3.15;1.75;;;22.60;99.90;;;;;;20749530;28;20041;-78
2022/08/01 07:11:12;;;;;;;3.37;1.90;;;23.40;99.90;;;;;;20750259;28;20041;-78
2022/08/01 07:21:13;;;;;;;3.10;1.83;;;23.60;99.90;;;;;;20783224;28;20295;-77
2022/08/01 07:31:14;;;;;;;6.10;2.40;;;23.90;99.90;;;;;;20792130;28;20036;-77
2022/08/01 07:41:15;;;;;;;;;;;24.70;99.90;;;;;;20789468;28;20297;-76
2022/08/01 07:51:16;;;;;;;5.45;1.60;;;25.40;99.90;;;;;;20764237;28;19930;-78
2022/08/01 08:01:17;;;;;;;2.83;2.10;;;26.50;99.90;;;;;;20754126;28;20056;-78
2022/08/01 08:11:18;;;;;;;3.97;1.95;;;26.00;99.90;;;;;;20772575;28;20036;-78
2022/08/01 08:21:19;;;;;;;6.45;2.13;;;26.40;99.90;;;;;;20771995;28;20034;-77
2022/08/01 08:31:20;;;;;;;3.45;2.10;;;27.90;99.90;;;;;;20747465;28;20056;-77
2022/08/01 08:41:22;;;;;;;5.70;2.00;;;27.40;99.90;;;;;;20759845;28;20045;-77
2022/08/01 08:51:26;;;;;;;2.95;1.80;;;28.50;99.90;;;;;;20761083;28;20037;-78
2022/08/01 09:01:28;;;;;;;2.53;1.60;;;28.80;99.90;;;;;;20762202;28;20049;-77
2022/08/01 09:11:29;;;;;;;2.47;1.77;;;28.10;99.90;;;;;;20776343;28;20556;-77
2022/08/01 09:21:30;;;;;;;2.30;1.48;;;28.30;99.90;;;;;;20778761;28;20041;-78
2022/08/01 09:31:40;;;;;;;1.92;1.40;;;28.90;99.90;;;;;;20759933;28;20488;-78
2022/08/01 09:41:41;;;;;;;5.20;1.10;;;29.50;99.90;;;;;;20792575;28;20093;-77
2022/08/01 09:51:42;;;;;;;3.72;1.73;;;29.40;99.90;;;;;;20769275;28;20017;-77
2022/08/01 10:01:49;;;;;;;2.80;1.60;;;29.50;99.90;;;;;;20772832;28;20068;-78
2022/08/01 10:11:50;;;;;;;2.80;1.63;;;29.80;99.90;;;;;;20772400;28;20026;-78
2022/08/01 10:21:53;;;;;;;2.15;1.23;;;29.70;99.90;;;;;;20779231;28;20084;-78
2022/08/01 10:31:54;;;;;;;3.10;0.60;;;30.80;99.00;;;;;;20750047;28;20102;-78
2022/08/01 10:41:56;;;;;;;4.40;1.33;;;31.00;96.40;;;;;;20780185;28;20045;-79
2022/08/01 10:51:57;;;;;;;2.28;0.52;;;30.80;94.30;;;;;;20766243;28;20101;-79
2022/08/01 11:02:01;;;;;;;2.80;0.80;;;31.60;92.40;;;;;;20768159;28;20030;-78
2022/08/01 11:12:10;;;;;;;2.28;0.70;;;31.60;93.70;;;;;;20775797;28;20080;-78
2022/08/01 11:22:11;;;;;;;2.05;0.57;;;31.30;93.90;;;;;;20807561;28;20025;-77
2022/08/01 11:32:26;;;;;;;0.73;0.32;;;31.90;92.30;;;;;;20862818;28;20041;-78
2022/08/01 11:42:27;;;;;;;2.60;0.63;;;32.50;92.20;;;;;;20817974;28;20125;-77
2022/08/01 11:52:32;;;;;;;1.50;0.60;;;32.80;90.40;;;;;;20829245;28;20048;-77
2022/08/01 12:02:34;;;;;;;0.43;0.40;;;32.50;89.90;;;;;;20821504;28;20037;-78
2022/08/01 12:12:41;;;;;;;3.17;0.40;;;31.70;88.10;;;;;;20840448;28;20029;-78
2022/08/01 12:22:43;;;;;;;1.15;0.40;;;32.70;88.10;;;;;;20837142;28;20029;-78
2022/08/01 12:32:47;;;;;;;1.00;0.43;;;32.80;83.90;;;;;;20756268;28;20045;-79
2022/08/01 12:42:53;;;;;;;2.85;0.55;;;32.50;86.70;;;;;;20810639;22;20052;-78
2022/08/01 12:52:54;;;;;;;0.80;0.50;;;32.20;87.50;;;;;;20981553;28;20033;-78
2022/08/01 13:03:15;;;;;;;0.60;0.50;;;32.50;88.10;;;;;;20991315;28;20083;-78
2022/08/01 13:13:19;;;;;;;0.90;0.55;;;32.70;84.50;;;;;;20980719;28;20037;-78
2022/08/01 13:23:20;;;;;;;1.98;0.60;;;32.70;85.80;;;;;;20972323;28;20037;-77
2022/08/01 13:33:22;;;;;;;0.88;0.60;;;32.20;86.40;;;;;;20908755;28;20047;-77
2022/08/01 13:43:22;;;;;;;2.92;0.60;;;32.80;86.70;;;;;;20908646;28;20037;-77
2022/08/01 13:53:24;;;;;;;0.50;0.45;;;31.90;86.50;;;;;;20913614;28;20581;-78
2022/08/01 14:03:25;;;;;;;4.28;0.60;;;32.80;86.40;;;;;;20905282;28;20132;-78
2022/08/01 14:13:26;;;;;;;2.08;0.73;;;31.90;86.50;;;;;;20905864;28;20439;-78
2022/08/01 14:23:27;;;;;;;0.90;0.70;;;32.60;88.00;;;;;;20907808;28;20132;-76
2022/08/01 14:33:28;;;;;;;0.85;0.80;;;32.60;84.90;;;;;;20902215;28;20128;-76
2022/08/01 14:43:31;;;;;;;2.25;1.00;;;31.80;88.10;;;;;;20897512;28;20033;-77
2022/08/01 14:53:32;;;;;;;1.98;1.50;;;31.60;88.50;;;;;;20858971;28;20072;-77
2022/08/01 15:03:33;;;;;;;2.00;0.90;;;31.30;89.00;;;;;;20885931;28;20044;-77
2022/08/01 15:13:34;;;;;;;2.40;0.93;;;31.80;87.50;;;;;;20918070;28;20094;-78
2022/08/01 15:23:34;;;;;;;1.15;0.73;;;32.00;86.90;;;;;;20904386;28;20033;-77
2022/08/01 15:33:35;;;;;;;0.60;0.60;;;31.50;84.20;;;;;;20917521;28;20043;-78
2022/08/01 15:43:36;;;;;;;1.02;0.80;;;31.40;85.00;;;;;;20931773;28;20040;-78
2022/08/01 15:53:37;;;;;;;2.88;1.00;;;31.20;85.90;;;;;;20881727;28;20403;-77
2022/08/01 16:03:38;;;;;;;1.00;0.90;;;31.40;85.60;;;;;;20920259;28;20036;-78
2022/08/01 16:13:39;;;;;;;3.45;0.90;;;30.80;88.60;;;;;;20921697;28;20120;-78
2022/08/01 16:23:40;;;;;;;4.60;0.95;;;30.70;86.50;;;;;;20922648;28;20109;-78
2022/08/01 16:33:41;;;;;;;1.52;0.90;;;30.30;87.50;;;;;;20929056;28;20047;-78
2022/08/01 16:43:42;;;;;;;2.03;0.95;;;29.60;87.60;;;;;;20921841;28;20111;-78
2022/08/01 16:53:43;;;;;;;3.47;1.13;;;29.40;89.20;;;;;;20941367;28;20036;-79
2022/08/01 17:03:45;;;;;;;2.55;1.02;;;29.20;90.90;;;;;;20922843;28;20452;-75
2022/08/01 17:13:46;;;;;;;2.75;1.20;;;29.20;90.40;;;;;;20917170;28;20036;-75
2022/08/01 17:23:47;;;;;;;1.52;1.00;;;28.90;90.50;;;;;;20905822;28;20462;-75
2022/08/01 17:33:48;;;;;;;2.35;1.10;;;28.60;90.90;;;;;;20908139;28;20033;-75
2022/08/01 17:43:49;;;;;;;2.28;0.90;;;28.50;91.10;;;;;;20906257;28;20044;-75
2022/08/01 17:53:50;;;;;;;4.80;1.05;;;28.10;91.70;;;;;;20923011;28;20033;-75
2022/08/01 18:03:51;;;;;;;4.53;1.20;;;28.00;92.20;;;;;;20884659;28;20037;-75
2022/08/01 18:13:52;;;;;;;4.15;1.13;;;27.80;92.60;;;;;;20913671;28;20037;-74
2022/08/01 18:23:53;;;;;;;1.33;1.08;;;27.80;93.10;;;;;;20911721;28;20098;-76
2022/08/01 18:33:54;;;;;;;1.95;1.23;;;27.70;93.90;;;;;;20902535;28;20065;-77
2022/08/01 18:43:55;;;;;;;2.35;1.17;;;27.30;94.60;;;;;;20903652;28;20083;-76
2022/08/01 18:53:56;;;;;;;6.57;1.83;;;27.10;95.40;;;;;;20911043;28;20413;-76
2022/08/01 19:03:57;;;;;;;22.35;4.35;;;26.50;96.60;;;;;;20910264;28;20029;-75
2022/08/01 19:13:58;;;;;;;6.60;1.98;;;26.40;97.00;;;;;;20884587;28;20047;-75
2022/08/01 19:24:18;;;;;;;29.70;3.17;;;26.00;98.30;;;;;;20900378;28;20487;-76
2022/08/01 19:34:21;;;;;;;5.90;2.92;;;25.70;99.90;;;;;;20900486;28;20447;-77
2022/08/01 19:44:24;;;;;;;100.93;7.80;;;25.60;99.90;;;;;;20899367;28;20033;-75
2022/08/01 19:54:29;;;;;;;7.32;2.53;;;25.40;99.90;;;;;;20869958;28;20036;-77
2022/08/01 20:04:32;;;;;;;6.88;2.63;;;25.10;99.90;;;;;;20879720;28;20030;-76
2022/08/01 20:25:42;;;;;;;2.40;1.77;;;25.40;99.90;;;;;;20423701;26;20045;-78
2022/08/01 20:35:43;;;;;;;2.95;1.90;;;25.30;99.90;;;;;;20884599;28;20029;-77
2022/08/01 20:45:45;;;;;;;1.95;1.50;;;24.60;99.90;;;;;;20826452;28;20033;-78
2022/08/01 20:55:55;;;;;;;3.25;1.95;;;24.60;99.90;;;;;;20799937;28;20496;-79
2022/08/01 21:06:06;;;;;;;2.17;1.58;;;24.60;99.90;;;;;;20810679;28;20041;-78
2022/08/01 21:16:10;;;;;;;2.43;1.77;;;24.70;99.90;;;;;;20860856;28;20114;-78
2022/08/01 21:26:12;;;;;;;5.88;1.90;;;23.80;99.90;;;;;;20766979;28;20241;-78
2022/08/01 21:46:29;;;;;;;5.93;1.70;;;23.20;99.90;;;;;;20854187;28;20128;-81
2022/08/01 21:56:46;;;;;;;5.97;2.03;;;23.40;99.90;;;;;;20856120;28;20069;-81
2022/08/01 22:06:48;;;;;;;4.03;1.98;;;23.30;99.90;;;;;;20842010;28;20339;-82
2022/08/01 22:16:49;;;;;;;4.10;1.75;;;23.10;99.90;;;;;;20856081;28;20040;-80
2022/08/01 22:26:52;;;;;;;2.25;1.52;;;22.80;99.90;;;;;;20829759;28;20061;-82
2022/08/01 22:36:54;;;;;;;3.50;2.08;;;22.60;99.90;;;;;;20826109;28;20626;-80
2022/08/01 22:47:05;;;;;;;7.95;2.10;;;22.30;99.90;;;;;;20813155;28;20040;-80
2022/08/01 22:57:30;;;;;;;8.30;2.10;;;22.10;99.90;;;;;;20849442;28;20029;-80
2022/08/01 23:07:33;;;;;;;8.05;2.20;;;21.50;99.90;;;;;;20847950;28;20026;-80
2022/08/01 23:17:35;;;;;;;3.63;2.05;;;21.50;99.90;;;;;;20845874;28;20063;-79
2022/08/01 23:27:39;;;;;;;5.07;2.33;;;21.30;99.90;;;;;;20843814;28;20067;-81
2022/08/01 23:37:39;;;;;;;2.97;2.17;;;21.20;99.90;;;;;;20842601;28;20116;-81
2022/08/01 23:47:40;;;;;;;6.67;2.53;;;21.20;99.90;;;;;;20844657;28;20021;-80
2022/08/01 23:57:42;;;;;;;2.47;1.93;;;20.90;99.90;;;;;;20848033;28;20040;-80
